Time;durP1;ratioP1;P1;durP2;ratioP2;P2;SDS_P1;SDS_P2;PMS_P1;PMS_P2;Temp;Humidity;BMP_temperature;BMP_pressure;BME280_temperature;BME280_humidity;BME280_pressure;Samples;Min_cycle;Max_cycle;Signal;HPM_P1;HPM_P2
2022/07/16 00:01:53;;;;;;;23.67;21.30;;;;;;;13.02;nan;99388.66;2075524;28;20176;-75
2022/07/16 00:02:55;;;;;;;23.05;20.67;;;;;;;13.00;nan;99382.81;2082926;28;20245;-75
2022/07/16 00:03:58;;;;;;;22.80;20.65;;;;;;;12.98;nan;99381.53;2082875;28;20718;-76
2022/07/16 00:04:59;;;;;;;23.92;21.67;;;;;;;12.95;nan;99384.84;2075816;28;20224;-75
2022/07/16 00:06:00;;;;;;;23.27;21.03;;;;;;;12.93;nan;99381.63;2074912;28;20654;-75
2022/07/16 00:07:03;;;;;;;23.35;21.35;;;;;;;12.91;nan;99378.47;2074387;28;20344;-75
2022/07/16 00:08:05;;;;;;;22.75;20.65;;;;;;;12.88;nan;99382.56;2074951;28;20300;-75
2022/07/16 00:09:08;;;;;;;23.52;21.00;;;;;;;12.84;nan;99380.78;2075396;28;20227;-75
2022/07/16 00:10:12;;;;;;;22.55;20.45;;;;;;;12.80;nan;99379.81;2074871;28;20574;-75
2022/07/16 00:11:13;;;;;;;22.55;20.38;;;;;;;12.80;nan;99375.25;2074758;28;20201;-75
2022/07/16 00:12:16;;;;;;;23.33;21.13;;;;;;;12.79;nan;99379.03;2075335;28;20196;-75
2022/07/16 00:13:17;;;;;;;22.63;20.50;;;;;;;12.78;nan;99372.09;2075362;28;20283;-75
2022/07/16 00:14:19;;;;;;;23.93;20.27;;;;;;;12.81;nan;99381.41;2074690;28;20200;-77
2022/07/16 00:15:20;;;;;;;23.67;21.27;;;;;;;12.82;nan;99378.41;2066584;28;20201;-75
2022/07/16 00:16:25;;;;;;;23.33;20.93;;;;;;;12.80;nan;99377.94;2074677;28;20231;-75
2022/07/16 00:17:25;;;;;;;22.75;20.75;;;;;;;12.80;nan;99375.25;2074673;28;20573;-75
2022/07/16 00:19:46;;;;;;;22.98;20.98;;;;;;;12.79;nan;99375.56;2074978;28;20180;-74
2022/07/16 00:20:47;;;;;;;22.85;20.60;;;;;;;12.78;nan;99369.41;2075472;28;20192;-75
2022/07/16 00:21:51;;;;;;;24.13;20.73;;;;;;;12.76;nan;99370.78;2074772;28;20323;-75
2022/07/16 00:22:53;;;;;;;22.50;20.40;;;;;;;12.73;nan;99369.50;2074475;28;20553;-75
2022/07/16 00:23:56;;;;;;;24.17;20.88;;;;;;;12.69;nan;99360.53;2066718;28;20201;-75
2022/07/16 00:24:57;;;;;;;22.55;20.33;;;;;;;12.69;nan;99358.63;2074692;28;20232;-75
2022/07/16 00:25:58;;;;;;;22.73;20.43;;;;;;;12.67;nan;99360.78;2082937;28;20187;-76
2022/07/16 00:26:59;;;;;;;23.15;20.67;;;;;;;12.67;nan;99362.69;2082721;28;20258;-75
2022/07/16 00:28:03;;;;;;;24.43;19.90;;;;;;;12.66;nan;99363.78;2082815;28;20681;-75
2022/07/16 00:29:04;;;;;;;23.73;20.58;;;;;;;12.60;nan;99356.97;2075125;28;20675;-75
2022/07/16 00:30:07;;;;;;;22.20;20.07;;;;;;;12.56;nan;99364.00;2074530;28;20274;-75
2022/07/16 00:31:09;;;;;;;21.52;19.63;;;;;;;12.49;nan;99359.06;2082930;28;20274;-76
2022/07/16 00:32:11;;;;;;;21.88;19.80;;;;;;;12.44;nan;99351.94;2075193;28;20192;-75
2022/07/16 00:33:13;;;;;;;21.80;19.92;;;;;;;12.36;nan;99355.34;2074771;28;20705;-75
2022/07/16 00:34:19;;;;;;;21.77;19.85;;;;;;;12.30;nan;99359.19;2074940;28;20276;-75
2022/07/16 00:35:19;;;;;;;21.85;19.73;;;;;;;12.25;nan;99351.28;2075396;28;20175;-75
2022/07/16 00:36:21;;;;;;;21.77;19.60;;;;;;;12.19;nan;99352.47;2075774;28;20223;-75
2022/07/16 00:37:22;;;;;;;21.63;19.60;;;;;;;12.14;nan;99358.72;2075369;28;20196;-76
2022/07/16 00:38:24;;;;;;;22.60;20.23;;;;;;;12.08;nan;99359.13;2075171;28;20192;-75
2022/07/16 00:39:24;;;;;;;20.95;19.20;;;;;;;12.04;nan;99360.81;2076324;28;20557;-75
2022/07/16 00:40:26;;;;;;;22.57;20.17;;;;;;;11.98;nan;99362.00;2075155;28;20192;-75
2022/07/16 00:41:28;;;;;;;22.17;20.10;;;;;;;11.93;nan;99362.09;2075527;28;20196;-75
2022/07/16 00:42:30;;;;;;;22.88;20.42;;;;;;;11.87;nan;99364.88;2074622;28;20246;-76
2022/07/16 00:43:44;;;;;;;22.73;20.20;;;;;;;11.80;nan;99359.13;2074681;28;20658;-75
2022/07/16 00:44:46;;;;;;;22.63;20.35;;;;;;;11.79;nan;99362.06;2074843;28;20172;-75
2022/07/16 00:45:46;;;;;;;23.23;20.80;;;;;;;11.73;nan;99358.72;2075209;28;20666;-76
2022/07/16 00:46:50;;;;;;;22.70;20.40;;;;;;;11.72;nan;99370.47;2075122;28;20541;-75
2022/07/16 00:47:50;;;;;;;22.90;20.20;;;;;;;11.71;nan;99358.19;2075245;28;20195;-75
2022/07/16 00:48:53;;;;;;;23.87;21.40;;;;;;;11.68;nan;99360.66;2075313;28;20195;-75
2022/07/16 00:49:53;;;;;;;23.20;20.98;;;;;;;11.64;nan;99360.47;2074423;28;20704;-75
2022/07/16 00:50:56;;;;;;;27.50;20.90;;;;;;;11.64;nan;99365.81;2065426;28;20216;-75
2022/07/16 00:51:56;;;;;;;23.23;20.38;;;;;;;11.62;nan;99367.97;2073894;28;20284;-75
2022/07/16 00:52:58;;;;;;;22.87;20.73;;;;;;;11.59;nan;99360.56;2074464;28;20753;-75
2022/07/16 00:53:59;;;;;;;23.20;20.65;;;;;;;11.58;nan;99364.31;2066319;28;20699;-75
2022/07/16 00:55:02;;;;;;;23.40;20.90;;;;;;;11.55;nan;99363.03;2074331;28;20551;-75
2022/07/16 00:56:07;;;;;;;22.73;20.50;;;;;;;11.55;nan;99364.91;2082498;28;20719;-75
2022/07/16 00:57:09;;;;;;;23.50;21.20;;;;;;;11.56;nan;99364.63;2074760;28;20204;-75
2022/07/16 00:58:10;;;;;;;23.48;21.20;;;;;;;11.55;nan;99351.53;2074482;28;20246;-75
2022/07/16 00:59:14;;;;;;;26.70;20.42;;;;;;;11.56;nan;99361.94;2074845;28;20259;-75
2022/07/16 01:00:15;;;;;;;24.00;21.67;;;;;;;11.57;nan;99355.53;2082530;28;20195;-75
2022/07/16 01:01:17;;;;;;;23.30;21.00;;;;;;;11.60;nan;99356.78;2082664;28;20196;-75
2022/07/16 01:02:19;;;;;;;24.02;21.65;;;;;;;11.61;nan;99359.16;2075009;28;20189;-75
2022/07/16 01:03:20;;;;;;;24.30;21.48;;;;;;;11.66;nan;99363.66;2073803;28;20242;-75
2022/07/16 01:04:21;;;;;;;24.13;21.80;;;;;;;11.69;nan;99360.38;2066238;28;20225;-75
2022/07/16 01:05:23;;;;;;;21.87;19.73;;;;;;;11.73;nan;99366.72;2074198;28;20200;-75
2022/07/16 01:06:24;;;;;;;23.27;20.80;;;;;;;11.72;nan;99367.78;2082168;28;20220;-75
2022/07/16 01:07:26;;;;;;;22.60;20.47;;;;;;;11.74;nan;99370.97;2074205;28;20319;-75
2022/07/16 01:08:27;;;;;;;23.27;20.80;;;;;;;11.76;nan;99355.44;2066558;28;20204;-75
2022/07/16 01:09:31;;;;;;;22.80;20.70;;;;;;;11.79;nan;99365.53;2074407;28;20187;-78
2022/07/16 01:10:32;;;;;;;23.70;21.35;;;;;;;11.79;nan;99360.19;2075115;28;20207;-75
2022/07/16 01:11:34;;;;;;;22.98;20.88;;;;;;;11.78;nan;99355.91;2074504;28;20192;-77
2022/07/16 01:12:35;;;;;;;22.50;20.23;;;;;;;11.79;nan;99364.72;2066220;28;20207;-75
2022/07/16 01:13:39;;;;;;;24.23;21.00;;;;;;;11.75;nan;99364.53;2074463;28;20586;-75
2022/07/16 01:14:43;;;;;;;22.83;20.63;;;;;;;11.73;nan;99360.59;2075132;28;20573;-75
2022/07/16 01:15:45;;;;;;;24.17;20.55;;;;;;;11.71;nan;99355.50;2075096;28;20188;-75
2022/07/16 01:16:47;;;;;;;22.40;20.40;;;;;;;11.74;nan;99359.50;2075021;28;20212;-75
2022/07/16 01:17:49;;;;;;;22.00;20.20;;;;;;;11.73;nan;99358.72;2074902;28;20184;-77
2022/07/16 01:18:51;;;;;;;22.80;20.48;;;;;;;11.71;nan;99366.22;2075258;28;20192;-78
2022/07/16 01:19:54;;;;;;;21.80;19.75;;;;;;;11.70;nan;99364.63;2074120;28;20224;-75
2022/07/16 01:20:55;;;;;;;23.35;20.98;;;;;;;11.67;nan;99359.88;2073945;28;20212;-75
2022/07/16 01:21:57;;;;;;;26.07;21.77;;;;;;;11.66;nan;99363.66;2075055;28;20195;-75
2022/07/16 01:22:59;;;;;;;23.05;20.58;;;;;;;11.66;nan;99362.84;2074473;28;20231;-75
2022/07/16 01:24:02;;;;;;;22.45;20.60;;;;;;;11.62;nan;99354.63;2074423;28;20599;-75
2022/07/16 01:25:08;;;;;;;23.23;20.98;;;;;;;11.59;nan;99356.00;2074767;28;20598;-75
2022/07/16 01:26:11;;;;;;;23.17;20.83;;;;;;;11.61;nan;99355.72;2074261;28;20267;-75
2022/07/16 01:27:12;;;;;;;23.08;20.98;;;;;;;11.60;nan;99362.13;2066003;28;20570;-78
2022/07/16 01:28:14;;;;;;;23.90;21.33;;;;;;;11.59;nan;99355.22;2066042;28;20311;-75
2022/07/16 01:29:15;;;;;;;24.08;21.08;;;;;;;11.57;nan;99360.06;2074578;28;20227;-75
2022/07/16 01:30:18;;;;;;;23.17;20.95;;;;;;;11.55;nan;99356.88;2074425;28;20188;-75
2022/07/16 01:31:19;;;;;;;22.73;20.63;;;;;;;11.52;nan;99357.47;2074240;28;20200;-76
2022/07/16 01:32:21;;;;;;;22.73;20.77;;;;;;;11.51;nan;99350.56;2075184;28;20250;-75
2022/07/16 01:33:24;;;;;;;22.88;20.52;;;;;;;11.50;nan;99354.31;2075118;28;20215;-77
2022/07/16 01:34:28;;;;;;;22.77;20.67;;;;;;;11.49;nan;99361.53;2074252;28;20207;-75
2022/07/16 01:35:28;;;;;;;23.45;21.30;;;;;;;11.47;nan;99357.59;2074476;28;20193;-75
2022/07/16 01:36:31;;;;;;;23.23;20.93;;;;;;;11.45;nan;99351.72;2074596;28;20228;-75
2022/07/16 01:37:34;;;;;;;22.95;20.67;;;;;;;11.44;nan;99353.59;2074231;28;20744;-75
2022/07/16 01:38:38;;;;;;;23.27;20.98;;;;;;;11.42;nan;99360.34;2074103;28;20216;-76
2022/07/16 01:39:40;;;;;;;23.13;21.02;;;;;;;11.37;nan;99350.50;2074714;28;20560;-75
2022/07/16 01:40:42;;;;;;;23.10;20.92;;;;;;;11.37;nan;99352.41;2073998;28;20584;-75
2022/07/16 01:41:50;;;;;;;23.17;21.08;;;;;;;11.34;nan;99351.09;2066270;28;20240;-76
2022/07/16 01:42:52;;;;;;;22.42;20.33;;;;;;;11.32;nan;99353.28;2067070;28;20555;-75
2022/07/16 01:43:53;;;;;;;22.52;20.23;;;;;;;11.29;nan;99346.66;2074087;28;20683;-78
2022/07/16 01:44:56;;;;;;;23.27;20.90;;;;;;;11.35;nan;99351.91;2074677;28;20552;-75
2022/07/16 01:45:58;;;;;;;23.13;20.80;;;;;;;11.31;nan;99355.16;2075004;28;20243;-77
2022/07/16 01:47:00;;;;;;;22.88;20.50;;;;;;;11.27;nan;99343.47;2074766;28;20547;-78
2022/07/16 01:48:01;;;;;;;23.38;21.00;;;;;;;11.28;nan;99347.72;2074737;28;20250;-75
2022/07/16 01:49:02;;;;;;;25.80;21.77;;;;;;;11.24;nan;99341.41;2074629;28;20242;-77
2022/07/16 01:50:04;;;;;;;22.98;20.67;;;;;;;11.26;nan;99344.56;2074728;28;20188;-78
2022/07/16 01:51:06;;;;;;;24.70;21.13;;;;;;;11.24;nan;99346.75;2074212;28;20188;-77
2022/07/16 01:52:08;;;;;;;24.80;21.27;;;;;;;11.20;nan;99347.59;2073962;28;20211;-75
2022/07/16 01:53:10;;;;;;;22.88;20.73;;;;;;;11.18;nan;99342.56;2074246;28;20560;-75
2022/07/16 01:54:12;;;;;;;23.50;21.35;;;;;;;11.14;nan;99341.56;2074622;28;20560;-75
2022/07/16 01:55:15;;;;;;;22.67;20.67;;;;;;;11.11;nan;99347.47;2074595;28;20243;-75
2022/07/16 01:56:16;;;;;;;22.15;20.27;;;;;;;11.08;nan;99345.41;2074547;28;20246;-75
2022/07/16 01:57:19;;;;;;;23.07;20.87;;;;;;;11.03;nan;99340.13;2074771;28;20192;-75
2022/07/16 01:58:20;;;;;;;22.63;20.55;;;;;;;11.02;nan;99338.53;2074707;28;20197;-75
2022/07/16 01:59:22;;;;;;;22.85;20.98;;;;;;;10.98;nan;99349.03;2073770;28;20292;-75
2022/07/16 02:00:22;;;;;;;23.77;21.52;;;;;;;10.96;nan;99345.06;2073911;28;20266;-75
2022/07/16 02:01:24;;;;;;;23.90;21.63;;;;;;;10.93;nan;99340.28;2074548;28;20188;-75
2022/07/16 02:02:26;;;;;;;23.52;21.08;;;;;;;10.92;nan;99344.06;2073637;28;20207;-75
2022/07/16 02:03:28;;;;;;;24.40;20.93;;;;;;;10.93;nan;99345.63;2073812;28;20219;-76
2022/07/16 02:04:30;;;;;;;23.25;21.05;;;;;;;10.92;nan;99341.38;2074040;28;20506;-76
2022/07/16 02:05:33;;;;;;;23.25;20.83;;;;;;;10.91;nan;99345.13;2074104;28;20216;-75
2022/07/16 02:06:34;;;;;;;24.00;21.17;;;;;;;10.93;nan;99342.97;2065479;28;20224;-75
2022/07/16 02:07:35;;;;;;;25.27;21.17;;;;;;;10.91;nan;99337.13;2073765;28;20254;-76
2022/07/16 02:08:36;;;;;;;23.73;21.23;;;;;;;10.92;nan;99338.72;2082094;28;20202;-76
2022/07/16 02:09:41;;;;;;;29.30;21.60;;;;;;;10.92;nan;99336.03;2074002;28;20188;-76
2022/07/16 02:10:43;;;;;;;23.63;20.95;;;;;;;10.90;nan;99335.53;2074541;28;20193;-76
2022/07/16 02:11:45;;;;;;;23.52;21.15;;;;;;;10.91;nan;99337.13;2074460;28;20185;-75
2022/07/16 02:12:46;;;;;;;22.52;20.38;;;;;;;10.92;nan;99344.06;2074464;28;20564;-76
2022/07/16 02:13:48;;;;;;;23.52;21.20;;;;;;;10.90;nan;99338.22;2074516;28;20196;-76
2022/07/16 02:14:49;;;;;;;23.67;21.17;;;;;;;10.92;nan;99336.84;2073766;28;20192;-75
2022/07/16 02:15:51;;;;;;;23.30;21.03;;;;;;;10.91;nan;99343.25;2065658;28;20205;-75
2022/07/16 02:16:51;;;;;;;23.38;21.05;;;;;;;10.88;nan;99338.50;2073892;28;20282;-76
2022/07/16 02:17:53;;;;;;;23.40;21.00;;;;;;;10.89;nan;99334.75;2074400;28;20195;-76
2022/07/16 02:18:54;;;;;;;25.13;22.45;;;;;;;10.88;nan;99337.72;2073679;28;20687;-75
2022/07/16 02:19:55;;;;;;;24.90;21.10;;;;;;;10.84;nan;99332.16;2073892;28;20563;-75
2022/07/16 02:20:56;;;;;;;23.90;21.30;;;;;;;10.84;nan;99336.69;2073169;28;20694;-76
2022/07/16 02:22:00;;;;;;;24.47;21.67;;;;;;;10.85;nan;99335.63;2074645;28;20583;-76
2022/07/16 02:23:02;;;;;;;23.60;21.25;;;;;;;10.85;nan;99331.06;2074506;28;20188;-75
2022/07/16 02:24:07;;;;;;;23.95;21.60;;;;;;;10.84;nan;99336.69;2073666;28;20291;-75
2022/07/16 02:25:09;;;;;;;23.80;21.35;;;;;;;10.83;nan;99340.47;2073798;28;20667;-76
2022/07/16 02:26:14;;;;;;;23.20;20.92;;;;;;;10.85;nan;99335.63;2074351;28;20685;-75
2022/07/16 02:27:17;;;;;;;28.55;22.00;;;;;;;10.82;nan;99338.88;2074569;28;20184;-75
2022/07/16 02:28:19;;;;;;;24.80;22.17;;;;;;;10.80;nan;99341.03;2073678;28;20290;-75
2022/07/16 02:29:19;;;;;;;24.10;21.88;;;;;;;10.79;nan;99342.13;2065546;28;20273;-76
2022/07/16 02:30:21;;;;;;;24.13;21.93;;;;;;;10.78;nan;99343.22;2073813;28;20650;-75
2022/07/16 02:31:23;;;;;;;23.13;20.88;;;;;;;10.73;nan;99331.53;2074261;28;20192;-75
2022/07/16 02:32:25;;;;;;;23.45;21.35;;;;;;;10.74;nan;99343.00;2074531;28;20189;-75
2022/07/16 02:33:26;;;;;;;26.70;21.67;;;;;;;10.77;nan;99337.06;2074377;28;20647;-75
2022/07/16 02:34:28;;;;;;;24.02;21.65;;;;;;;10.75;nan;99340.03;2074289;28;20242;-75
2022/07/16 02:35:29;;;;;;;23.02;20.58;;;;;;;10.76;nan;99340.81;2074582;28;20195;-76
2022/07/16 02:36:31;;;;;;;24.00;21.60;;;;;;;10.77;nan;99337.06;2073979;28;20678;-76
2022/07/16 02:37:31;;;;;;;24.02;20.95;;;;;;;10.74;nan;99327.75;2074334;28;20240;-75
2022/07/16 02:38:33;;;;;;;22.90;20.50;;;;;;;10.74;nan;99337.66;2074276;28;20192;-75
2022/07/16 02:39:36;;;;;;;27.35;21.17;;;;;;;10.75;nan;99329.34;2074407;28;20199;-75
2022/07/16 02:40:39;;;;;;;24.35;21.23;;;;;;;10.81;nan;99332.75;2073657;28;20192;-75
2022/07/16 02:41:41;;;;;;;24.27;21.60;;;;;;;10.81;nan;99327.41;2073795;28;20195;-75
2022/07/16 02:42:43;;;;;;;23.25;21.02;;;;;;;10.82;nan;99333.53;2074261;28;20192;-75
2022/07/16 02:43:43;;;;;;;23.67;21.20;;;;;;;10.80;nan;99335.72;2074021;28;20311;-75
2022/07/16 02:44:46;;;;;;;23.47;21.27;;;;;;;10.80;nan;99325.03;2074196;28;20184;-75
2022/07/16 02:45:48;;;;;;;26.85;21.40;;;;;;;10.79;nan;99334.13;2074360;28;20263;-75
2022/07/16 02:46:51;;;;;;;24.45;20.80;;;;;;;10.80;nan;99330.38;2073898;28;20200;-75
2022/07/16 02:47:52;;;;;;;23.80;21.27;;;;;;;10.80;nan;99330.38;2073750;28;20203;-75
2022/07/16 02:48:54;;;;;;;23.37;20.80;;;;;;;10.80;nan;99327.69;2074202;28;20275;-75
2022/07/16 02:49:54;;;;;;;21.48;19.58;;;;;;;10.77;nan;99326.38;2074190;28;20192;-75
2022/07/16 02:50:57;;;;;;;23.43;20.90;;;;;;;10.76;nan;99330.94;2073795;28;20193;-75
2022/07/16 02:52:00;;;;;;;22.95;20.77;;;;;;;10.74;nan;99333.09;2073148;28;20200;-75
2022/07/16 02:53:02;;;;;;;21.92;20.00;;;;;;;10.74;nan;99333.09;2073986;28;20540;-75
2022/07/16 02:54:07;;;;;;;21.83;19.48;;;;;;;10.71;nan;99340.91;2074377;28;20195;-75
2022/07/16 02:55:07;;;;;;;23.20;20.92;;;;;;;10.72;nan;99339.81;2073442;28;20689;-75
2022/07/16 02:56:09;;;;;;;23.23;20.87;;;;;;;10.73;nan;99338.72;2073759;28;20657;-75
2022/07/16 02:57:11;;;;;;;22.08;20.05;;;;;;;10.69;nan;99335.88;2074132;28;20196;-75
2022/07/16 02:58:15;;;;;;;21.92;19.80;;;;;;;10.71;nan;99332.91;2073704;28;20197;-75
2022/07/16 02:59:16;;;;;;;22.75;20.35;;;;;;;10.69;nan;99338.53;2065561;28;20232;-75
2022/07/16 03:00:20;;;;;;;22.45;20.10;;;;;;;10.68;nan;99334.25;2073524;28;20211;-75
2022/07/16 03:01:21;;;;;;;23.05;20.60;;;;;;;10.68;nan;99334.25;2074276;28;20199;-75
2022/07/16 03:02:23;;;;;;;25.50;20.57;;;;;;;10.65;nan;99334.84;2074345;28;20263;-75
2022/07/16 03:03:23;;;;;;;24.10;21.13;;;;;;;10.68;nan;99336.13;2074251;28;20250;-76
2022/07/16 03:04:25;;;;;;;21.43;19.63;;;;;;;10.67;nan;99322.00;2074294;28;20709;-75
2022/07/16 03:05:26;;;;;;;21.45;19.52;;;;;;;10.64;nan;99330.59;2073438;28;20251;-75
2022/07/16 03:06:28;;;;;;;22.73;20.80;;;;;;;10.64;nan;99335.94;2065098;28;20218;-75
2022/07/16 03:07:29;;;;;;;21.95;20.15;;;;;;;10.61;nan;99333.06;2073379;28;20196;-75
2022/07/16 03:08:30;;;;;;;23.40;20.90;;;;;;;10.58;nan;99334.41;2074607;28;20180;-75
2022/07/16 03:09:31;;;;;;;21.83;19.83;;;;;;;10.57;nan;99332.81;2073452;28;20204;-75
2022/07/16 03:10:32;;;;;;;23.17;20.70;;;;;;;10.56;nan;99335.78;2073473;28;20192;-75
2022/07/16 03:11:33;;;;;;;22.45;20.45;;;;;;;10.54;nan;99332.63;2074898;28;20220;-75
2022/07/16 03:12:38;;;;;;;22.23;20.00;;;;;;;10.53;nan;99336.38;2074159;28;20581;-75
2022/07/16 03:13:40;;;;;;;22.73;20.33;;;;;;;10.50;nan;99335.06;2074097;28;20231;-75
2022/07/16 03:14:43;;;;;;;22.60;20.15;;;;;;;10.51;nan;99341.19;2073721;28;20370;-75
2022/07/16 03:15:45;;;;;;;22.65;20.50;;;;;;;10.48;nan;99346.00;2074021;28;20189;-75
2022/07/16 03:16:46;;;;;;;24.58;21.08;;;;;;;10.47;nan;99348.97;2073827;28;20259;-75
2022/07/16 03:17:47;;;;;;;22.40;20.30;;;;;;;10.48;nan;99337.22;2073495;28;20196;-75
2022/07/16 03:18:48;;;;;;;25.48;20.40;;;;;;;10.51;nan;99333.97;2074320;28;20666;-76
2022/07/16 03:19:50;;;;;;;22.23;20.17;;;;;;;10.50;nan;99337.72;2074395;28;20551;-75
2022/07/16 03:20:51;;;;;;;22.02;20.13;;;;;;;10.47;nan;99340.97;2073982;28;20192;-76
2022/07/16 03:21:53;;;;;;;22.63;20.30;;;;;;;10.45;nan;99332.47;2075530;28;20216;-75
2022/07/16 03:22:56;;;;;;;22.17;20.15;;;;;;;10.45;nan;99335.13;2073453;28;20609;-76
2022/07/16 03:23:56;;;;;;;23.25;21.08;;;;;;;10.42;nan;99328.53;2073203;28;20727;-76
2022/07/16 03:24:58;;;;;;;23.53;21.00;;;;;;;10.42;nan;99335.69;2082832;28;20551;-75
2022/07/16 03:25:59;;;;;;;23.58;21.10;;;;;;;10.42;nan;99331.19;2081499;28;20207;-75
2022/07/16 03:27:00;;;;;;;22.97;20.53;;;;;;;10.41;nan;99329.56;2082559;28;20189;-76
2022/07/16 03:28:04;;;;;;;24.00;21.40;;;;;;;10.41;nan;99337.56;2074028;28;20576;-76
2022/07/16 03:29:05;;;;;;;23.05;20.73;;;;;;;10.40;nan;99338.66;2072837;28;20200;-76
2022/07/16 03:30:07;;;;;;;22.48;20.55;;;;;;;10.41;nan;99336.78;2066568;28;20204;-76
2022/07/16 03:31:09;;;;;;;23.40;21.08;;;;;;;10.40;nan;99338.66;2073630;28;20558;-76
2022/07/16 03:32:10;;;;;;;23.85;21.50;;;;;;;10.41;nan;99334.13;2073671;28;20261;-76
2022/07/16 03:33:11;;;;;;;22.80;20.67;;;;;;;10.41;nan;99342.13;2065203;28;20200;-76
2022/07/16 03:34:14;;;;;;;21.98;20.02;;;;;;;10.43;nan;99335.44;2073387;28;20221;-76
2022/07/16 03:35:17;;;;;;;22.77;20.65;;;;;;;10.43;nan;99342.66;2074095;28;20185;-76
2022/07/16 03:36:18;;;;;;;23.83;21.45;;;;;;;10.41;nan;99339.44;2073598;28;20541;-76
2022/07/16 03:37:20;;;;;;;23.23;21.13;;;;;;;10.42;nan;99341.84;2074219;28;20219;-76
2022/07/16 03:39:40;;;;;;;23.25;21.10;;;;;;;10.44;nan;99346.91;2073610;28;20270;-76
2022/07/16 03:40:41;;;;;;;23.15;20.85;;;;;;;10.43;nan;99347.97;2074064;28;20204;-76
2022/07/16 03:41:44;;;;;;;23.00;20.87;;;;;;;10.43;nan;99347.97;2073238;28;20700;-76
2022/07/16 03:42:45;;;;;;;23.17;20.88;;;;;;;10.44;nan;99344.22;2073437;28;20192;-76
2022/07/16 03:43:48;;;;;;;24.63;21.57;;;;;;;10.45;nan;99346.59;2073849;28;20208;-76
2022/07/16 03:44:49;;;;;;;23.65;21.48;;;;;;;10.45;nan;99345.81;2074773;28;20212;-76
2022/07/16 03:45:50;;;;;;;23.48;21.25;;;;;;;10.46;nan;99352.72;2073961;28;20647;-76
2022/07/16 03:46:52;;;;;;;24.93;22.13;;;;;;;10.46;nan;99347.41;2074089;28;20554;-76
2022/07/16 03:47:54;;;;;;;24.17;21.33;;;;;;;10.47;nan;99347.09;2074407;28;20189;-76
2022/07/16 03:48:56;;;;;;;23.95;21.30;;;;;;;10.47;nan;99348.97;2073575;28;20200;-76
2022/07/16 03:49:56;;;;;;;24.15;21.75;;;;;;;10.49;nan;99349.47;2065823;28;20201;-76
2022/07/16 03:50:58;;;;;;;23.53;21.23;;;;;;;10.49;nan;99349.47;2073226;28;20284;-75
2022/07/16 03:52:00;;;;;;;24.65;22.05;;;;;;;10.50;nan;99347.59;2074100;28;20177;-76
2022/07/16 03:53:00;;;;;;;24.38;21.88;;;;;;;10.51;nan;99351.84;2074073;28;20196;-76
2022/07/16 03:54:02;;;;;;;24.23;21.60;;;;;;;10.51;nan;99352.66;2073393;28;20193;-76
2022/07/16 03:55:08;;;;;;;24.00;21.75;;;;;;;10.51;nan;99344.63;2073902;28;20238;-76
2022/07/16 03:56:10;;;;;;;24.13;21.55;;;;;;;10.54;nan;99353.97;2074080;28;20173;-76
2022/07/16 03:57:11;;;;;;;23.55;21.08;;;;;;;10.54;nan;99351.28;2073261;28;20204;-76
2022/07/16 03:58:13;;;;;;;23.13;20.93;;;;;;;10.55;nan;99355.53;2065186;28;20225;-76
2022/07/16 03:59:15;;;;;;;24.13;22.00;;;;;;;10.55;nan;99345.66;2073070;28;20240;-76
2022/07/16 04:00:16;;;;;;;24.38;21.80;;;;;;;10.58;nan;99347.75;2081302;28;20607;-76
2022/07/16 04:01:18;;;;;;;23.23;21.07;;;;;;;10.61;nan;99347.19;2074225;28;20207;-76
2022/07/16 04:02:19;;;;;;;23.25;21.00;;;;;;;10.62;nan;99354.09;2081372;28;20227;-76
2022/07/16 04:03:21;;;;;;;22.63;20.57;;;;;;;10.62;nan;99351.44;2073659;28;20694;-76
2022/07/16 04:04:22;;;;;;;23.65;21.45;;;;;;;10.61;nan;99349.84;2073688;28;20204;-76
2022/07/16 04:05:23;;;;;;;24.47;21.87;;;;;;;10.65;nan;99352.72;2073217;28;20228;-76
2022/07/16 04:06:24;;;;;;;23.33;21.33;;;;;;;10.70;nan;99345.44;2073079;28;20220;-76
2022/07/16 04:07:26;;;;;;;23.50;21.30;;;;;;;10.71;nan;99343.56;2073815;28;20200;-76
2022/07/16 04:08:27;;;;;;;24.20;21.80;;;;;;;10.72;nan;99350.50;2073844;28;20188;-76
2022/07/16 04:09:29;;;;;;;23.88;21.25;;;;;;;10.72;nan;99353.97;2073655;28;20211;-76
2022/07/16 04:10:30;;;;;;;23.30;20.92;;;;;;;10.73;nan;99354.75;2073372;28;20600;-76
2022/07/16 04:11:31;;;;;;;24.73;21.57;;;;;;;10.76;nan;99354.94;2074140;28;20207;-76
2022/07/16 04:12:32;;;;;;;24.27;21.85;;;;;;;10.78;nan;99353.91;2073197;28;20243;-76
2022/07/16 04:13:33;;;;;;;24.10;21.57;;;;;;;10.82;nan;99355.69;2073258;28;20188;-76
2022/07/16 04:14:37;;;;;;;24.30;21.70;;;;;;;10.85;nan;99360.44;2074000;28;20195;-76
2022/07/16 04:15:40;;;;;;;23.33;20.88;;;;;;;10.85;nan;99359.63;2073799;28;20184;-76
2022/07/16 04:16:43;;;;;;;23.60;21.35;;;;;;;10.92;nan;99352.06;2073974;28;20721;-76
2022/07/16 04:17:45;;;;;;;23.20;20.77;;;;;;;10.94;nan;99357.88;2074053;28;20549;-76
2022/07/16 04:18:45;;;;;;;23.55;21.05;;;;;;;10.99;nan;99355.94;2073836;28;20220;-76
2022/07/16 04:19:47;;;;;;;24.27;21.33;;;;;;;11.03;nan;99353.47;2073855;28;20200;-76
2022/07/16 04:20:49;;;;;;;22.85;20.65;;;;;;;11.08;nan;99356.06;2073895;28;20220;-76
2022/07/16 04:21:52;;;;;;;24.55;21.20;;;;;;;11.11;nan;99355.47;2072103;28;20282;-76
2022/07/16 04:22:53;;;;;;;23.65;21.25;;;;;;;11.17;nan;99356.22;2065482;28;20243;-76
2022/07/16 04:23:55;;;;;;;23.70;21.50;;;;;;;11.24;nan;99357.41;2073160;28;20193;-76
2022/07/16 04:24:55;;;;;;;25.75;21.73;;;;;;;11.27;nan;99350.69;2073722;28;20603;-76
2022/07/16 04:25:57;;;;;;;23.20;20.83;;;;;;;11.30;nan;99348.25;2073869;28;20192;-76
2022/07/16 04:26:58;;;;;;;28.00;21.65;;;;;;;11.35;nan;99352.69;2074692;28;20286;-76
2022/07/16 04:28:01;;;;;;;23.83;20.83;;;;;;;11.39;nan;99353.69;2075422;28;20200;-76
2022/07/16 04:29:04;;;;;;;22.67;20.50;;;;;;;11.42;nan;99352.31;2075279;28;20207;-76
2022/07/16 04:30:08;;;;;;;23.77;21.42;;;;;;;11.45;nan;99351.72;2075506;28;20196;-76
2022/07/16 04:31:09;;;;;;;23.88;21.38;;;;;;;11.45;nan;99341.81;2075410;28;20216;-76
2022/07/16 04:32:10;;;;;;;23.25;20.98;;;;;;;11.50;nan;99349.75;2074732;28;20249;-76
2022/07/16 04:33:12;;;;;;;23.97;21.47;;;;;;;11.51;nan;99348.66;2074654;28;20679;-76
2022/07/16 04:34:12;;;;;;;25.10;21.38;;;;;;;11.52;nan;99352.13;2074531;28;20215;-76
2022/07/16 04:35:15;;;;;;;24.10;21.80;;;;;;;11.54;nan;99344.59;2074618;28;20273;-76
2022/07/16 04:36:18;;;;;;;24.05;21.77;;;;;;;11.57;nan;99344.03;2074871;28;20223;-76
2022/07/16 04:37:19;;;;;;;25.17;21.02;;;;;;;11.55;nan;99340.84;2075314;28;20181;-76
2022/07/16 04:38:21;;;;;;;23.13;20.97;;;;;;;11.55;nan;99336.31;2074543;28;20196;-76
2022/07/16 04:39:21;;;;;;;23.55;21.17;;;;;;;11.56;nan;99339.78;2074819;28;20192;-76
2022/07/16 04:40:23;;;;;;;23.93;21.53;;;;;;;11.56;nan;99335.22;2075326;28;20251;-76
2022/07/16 04:41:23;;;;;;;26.92;22.27;;;;;;;11.58;nan;99329.59;2074727;28;20212;-76
2022/07/16 04:42:25;;;;;;;24.30;21.73;;;;;;;11.57;nan;99333.34;2074581;28;20193;-76
2022/07/16 04:43:28;;;;;;;23.25;21.00;;;;;;;11.60;nan;99340.75;2074529;28;20215;-76
2022/07/16 04:44:29;;;;;;;26.50;22.13;;;;;;;11.60;nan;99332.75;2074602;28;20580;-76
2022/07/16 04:45:33;;;;;;;25.90;23.20;;;;;;;11.60;nan;99330.88;2074788;28;20315;-76
2022/07/16 04:46:33;;;;;;;27.60;23.23;;;;;;;11.62;nan;99333.22;2074912;28;20195;-76
2022/07/16 04:47:35;;;;;;;25.97;23.27;;;;;;;11.65;nan;99332.66;2083323;28;20206;-76
2022/07/16 04:48:37;;;;;;;26.42;23.17;;;;;;;11.65;nan;99332.66;2074339;28;20200;-76
2022/07/16 04:49:38;;;;;;;25.80;23.20;;;;;;;11.69;nan;99347.00;2074694;28;20647;-76
2022/07/16 04:50:40;;;;;;;29.03;24.37;;;;;;;11.70;nan;99335.22;2075297;28;20207;-76
2022/07/16 04:51:40;;;;;;;26.45;23.95;;;;;;;11.71;nan;99339.47;2074107;28;20228;-76
2022/07/16 04:52:42;;;;;;;26.00;23.37;;;;;;;11.73;nan;99337.31;2074578;28;20193;-76
2022/07/16 04:53:43;;;;;;;27.77;23.25;;;;;;;11.75;nan;99339.69;2075071;28;20658;-76
2022/07/16 04:54:44;;;;;;;26.23;23.43;;;;;;;11.78;nan;99333.75;2075028;28;20206;-76
2022/07/16 04:55:46;;;;;;;25.33;22.70;;;;;;;11.78;nan;99339.88;2075178;28;20216;-76